Terminal Aerodrome Forecast
Issued by NWS Pueblo, CO

Home | Current Version | Previous Version | Text Only | Print | Product List | Glossary On
Versions: 1 2 3 4 5 6 7 8 9 10 11 12 13 14 15 16 17 18 19 20 21 22 23 24 25 26 27 28 29 30 31
000
FTUS45 KPUB 020530
TAFALS
TAF
KALS 020530Z 0206/0306 VRB04KT P6SM SCT090 BKN150
     FM021100 VRB04KT P6SM SCT020 BKN150
     FM021500 VRB04KT P6SM FEW100 SCT150
     FM022100 07009KT P6SM VCTS SCT080CB BKN140
     FM030300 09009KT P6SM SCT080 BKN140=

USA.gov is the U.S. government's official web portal to all federal, state and local government web resources and services.